createdAt,value
2023-01-27T00:00:20.284Z,16.820142
2023-01-27T00:05:22.151Z,17.756334
2023-01-27T00:10:23.691Z,17.632226
2023-01-27T00:15:25.331Z,17.45992
2023-01-27T00:20:27.122Z,17.645036
2023-01-27T00:25:28.794Z,17.193238
2023-01-27T00:30:30.512Z,16.988636
2023-01-27T00:35:32.363Z,17.458238
2023-01-27T00:40:34.245Z,16.58524
2023-01-27T00:45:36.458Z,16.596096
2023-01-27T00:50:38.174Z,16.833536
2023-01-27T00:55:40.059Z,16.57182
2023-01-27T01:00:41.819Z,16.415756
2023-01-27T01:05:43.303Z,17.116624
2023-01-27T01:10:44.809Z,16.679508
2023-01-27T01:15:46.552Z,16.54331
2023-01-27T01:20:48.380Z,16.50959
2023-01-27T01:25:50.178Z,16.698396
2023-01-27T01:30:52.077Z,16.812354
2023-01-27T01:35:53.622Z,16.571454
2023-01-27T01:40:55.274Z,16.661406
2023-01-27T01:45:57.008Z,16.85887
2023-01-27T01:50:58.744Z,16.4937
2023-01-27T01:56:00.554Z,16.513118
2023-01-27T02:01:02.363Z,16.05041
2023-01-27T02:06:04.045Z,15.982168
2023-01-27T02:11:05.532Z,14.93901
2023-01-27T02:16:07.530Z,15.469416
2023-01-27T02:21:09.431Z,15.604474
2023-01-27T02:26:11.459Z,15.854004
2023-01-27T02:31:13.375Z,16.409406
2023-01-27T02:36:15.184Z,15.98571
2023-01-27T02:41:17.143Z,16.27717
2023-01-27T02:46:19.309Z,16.981756
2023-01-27T02:51:21.176Z,16.16533
2023-01-27T02:56:23.065Z,16.325274
2023-01-27T03:01:24.903Z,16.011302
2023-01-27T03:06:27.139Z,16.551954
2023-01-27T03:11:29.132Z,17.032506
2023-01-27T03:16:31.178Z,16.466506
2023-01-27T03:21:33.022Z,16.233042
2023-01-27T03:26:34.580Z,17.125186
2023-01-27T03:31:36.672Z,16.693904
2023-01-27T03:36:38.514Z,17.071966
2023-01-27T03:41:40.431Z,16.84184
2023-01-27T03:46:42.539Z,16.632556
2023-01-27T03:51:44.420Z,16.733012
2023-01-27T03:56:46.405Z,16.320606
2023-01-27T04:01:48.303Z,16.28177
2023-01-27T04:06:50.255Z,16.46846
2023-01-27T04:11:52.228Z,16.78288
2023-01-27T04:16:54.270Z,16.577206
2023-01-27T04:21:55.829Z,16.690906
2023-01-27T04:26:57.519Z,16.89605
2023-01-27T04:31:59.009Z,16.625134
2023-01-27T04:37:00.536Z,16.73327
2023-01-27T04:42:02.139Z,16.693022
2023-01-27T04:47:04.911Z,16.730542
2023-01-27T04:52:06.421Z,17.33105
2023-01-27T04:57:08.049Z,17.142664
2023-01-27T05:02:09.714Z,17.87215
2023-01-27T05:07:11.658Z,18.244648
2023-01-27T05:12:13.104Z,18.450946
2023-01-27T05:17:15.047Z,18.822766
2023-01-27T05:22:16.842Z,18.256942
2023-01-27T05:27:19.190Z,19.350012
2023-01-27T05:32:21.298Z,19.718914
2023-01-27T05:37:23.260Z,20.087396
2023-01-27T05:42:25.772Z,21.484778
2023-01-27T05:47:27.780Z,21.166992
2023-01-27T05:52:29.913Z,20.73974
2023-01-27T05:57:32.038Z,21.707428
2023-01-27T06:02:33.896Z,20.931668
2023-01-27T06:07:35.609Z,22.111476
2023-01-27T06:12:37.565Z,22.082532
2023-01-27T06:17:39.401Z,21.862284
2023-01-27T06:22:41.120Z,23.408892
2023-01-27T06:27:43.187Z,23.654054
2023-01-27T06:32:44.989Z,24.187882
2023-01-27T06:37:47.219Z,23.849578
2023-01-27T06:42:49.240Z,22.703748
2023-01-27T06:47:51.314Z,21.335784
2023-01-27T06:52:53.295Z,24.58003
2023-01-27T06:57:55.146Z,25.19092
2023-01-27T07:02:56.843Z,25.294008
2023-01-27T07:07:58.326Z,26.001244
2023-01-27T07:12:59.772Z,26.028206
2023-01-27T07:18:01.628Z,25.909472
2023-01-27T07:23:03.115Z,25.509562
2023-01-27T07:28:04.922Z,26.01275
2023-01-27T07:33:06.823Z,25.912118
2023-01-27T07:38:08.612Z,26.67682
2023-01-27T07:43:10.278Z,27.515694
2023-01-27T07:48:12.255Z,25.603098
2023-01-27T07:53:13.955Z,28.25593
2023-01-27T07:58:15.550Z,25.819872
2023-01-27T08:03:17.318Z,25.317606
2023-01-27T08:08:18.931Z,27.237842
2023-01-27T08:13:20.510Z,27.553174
2023-01-27T08:18:22.179Z,27.423842
2023-01-27T08:23:24.001Z,27.32188
2023-01-27T08:28:26.441Z,28.046904
2023-01-27T08:33:28.214Z,28.858422
2023-01-27T08:38:30.105Z,28.895264
2023-01-27T08:43:32.314Z,30.069634
2023-01-27T08:48:34.441Z,29.359848
2023-01-27T08:53:36.457Z,29.706374
2023-01-27T08:58:38.285Z,29.395604
2023-01-27T09:03:40.036Z,30.064342
2023-01-27T09:09:16.238Z,30.727558
2023-01-27T09:14:24.876Z,28.775852
2023-01-27T09:19:26.763Z,28.331826
2023-01-27T09:24:28.523Z,29.149518
2023-01-27T09:29:30.651Z,29.80059
2023-01-27T09:34:32.311Z,28.91669
2023-01-27T09:39:34.054Z,29.48941
2023-01-27T09:44:36.241Z,29.814486
2023-01-27T09:49:38.087Z,29.963492
2023-01-27T09:54:40.030Z,31.12375
2023-01-27T09:59:42.344Z,27.801892
2023-01-27T10:04:44.370Z,27.798364
2023-01-27T10:09:46.317Z,30.78915
2023-01-27T10:14:48.812Z,29.417234
2023-01-27T10:19:50.906Z,32.074562
2023-01-27T10:24:52.642Z,30.964824
2023-01-27T10:29:54.759Z,29.841664
2023-01-27T10:34:56.379Z,31.636234
2023-01-27T10:39:58.184Z,31.319276
2023-01-27T10:45:00.135Z,30.31595
2023-01-27T10:50:01.819Z,30.07935
2023-01-27T10:55:03.802Z,30.76729
2023-01-27T11:00:35.704Z,30.157918
2023-01-27T11:05:44.167Z,29.718506
2023-01-27T11:10:46.235Z,29.341298
2023-01-27T11:15:48.379Z,29.23407
2023-01-27T11:20:50.463Z,33.080114
2023-01-27T11:25:52.520Z,31.973022
2023-01-27T11:30:54.710Z,29.503728
2023-01-27T11:35:56.664Z,29.630848
2023-01-27T11:40:58.313Z,29.941824
2023-01-27T11:46:00.174Z,29.446572
2023-01-27T11:51:02.028Z,30.928838
2023-01-27T11:56:03.687Z,29.554734
2023-01-27T12:01:05.397Z,28.187012
2023-01-27T12:06:07.450Z,28.630208
2023-01-27T12:11:09.596Z,30.858668
2023-01-27T12:16:11.888Z,32.433874
2023-01-27T12:21:13.880Z,31.596044
2023-01-27T12:26:15.933Z,31.33826
2023-01-27T12:31:18.123Z,28.895916
2023-01-27T12:36:20.342Z,28.427166
2023-01-27T12:41:22.960Z,29.140902
2023-01-27T12:46:25.123Z,28.988854
2023-01-27T12:51:26.790Z,28.493142
2023-01-27T12:56:28.896Z,28.355628
2023-01-27T13:01:31.251Z,28.453654
2023-01-27T13:06:33.557Z,28.400704
2023-01-27T13:11:35.646Z,26.823576
2023-01-27T13:16:37.559Z,27.744776
2023-01-27T13:21:39.293Z,27.16743
2023-01-27T13:26:40.801Z,26.81253
2023-01-27T13:31:42.375Z,26.576622
2023-01-27T13:36:44.149Z,27.03898
2023-01-27T13:41:45.872Z,25.959748
2023-01-27T13:46:47.653Z,25.310048
2023-01-27T13:51:49.618Z,25.197054
2023-01-27T13:56:51.209Z,26.195492
2023-01-27T14:01:52.958Z,25.791172
2023-01-27T14:06:54.708Z,25.666738
2023-01-27T14:11:56.208Z,25.825164
2023-01-27T14:16:57.964Z,25.30363
2023-01-27T14:21:59.824Z,25.168802
2023-01-27T14:27:01.369Z,25.858274
2023-01-27T14:32:03.166Z,25.027556
2023-01-27T14:37:04.738Z,24.544044
2023-01-27T14:42:06.261Z,24.507406
2023-01-27T14:47:08.102Z,24.645802
2023-01-27T14:52:10.085Z,24.79652
2023-01-27T14:57:11.721Z,25.20833
2023-01-27T15:02:13.584Z,24.920994
2023-01-27T15:07:15.122Z,25.849888
2023-01-27T15:12:16.723Z,25.642192
2023-01-27T15:17:18.347Z,26.375792
2023-01-27T15:22:20.358Z,27.219062
2023-01-27T15:27:22.125Z,27.133438
2023-01-27T15:32:23.987Z,26.624944
2023-01-27T15:37:25.533Z,26.65496
2023-01-27T15:42:27.181Z,27.552766
2023-01-27T15:47:28.693Z,27.616326
2023-01-27T15:52:30.729Z,27.123722
2023-01-27T15:57:32.668Z,27.32762
2023-01-27T16:02:34.867Z,26.48458
2023-01-27T16:07:36.692Z,25.40475
2023-01-27T16:12:38.631Z,25.575768
2023-01-27T16:17:40.727Z,25.192196
2023-01-27T16:22:42.502Z,25.265268
2023-01-27T16:27:43.993Z,24.959152
2023-01-27T16:32:45.571Z,25.251794
2023-01-27T16:37:47.241Z,25.733352
2023-01-27T16:42:48.790Z,25.219566
2023-01-27T16:47:50.714Z,25.875928
2023-01-27T16:52:52.690Z,25.839928
2023-01-27T16:57:54.958Z,25.592106
2023-01-27T17:02:56.777Z,24.887206
2023-01-27T17:07:58.265Z,25.235022
2023-01-27T17:12:59.735Z,24.33168
2023-01-27T17:18:01.468Z,24.55262
2023-01-27T17:23:03.476Z,24.206338
2023-01-27T17:28:05.307Z,24.061116
2023-01-27T17:33:07.138Z,24.248512
2023-01-27T17:38:09.118Z,23.795002
2023-01-27T17:43:10.955Z,23.054604
2023-01-27T17:48:12.814Z,23.297364
2023-01-27T17:53:15.110Z,23.093006
2023-01-27T17:58:17.496Z,23.59618
2023-01-27T18:03:19.549Z,23.35916
2023-01-27T18:08:21.417Z,23.33198
2023-01-27T18:13:23.498Z,23.24086
2023-01-27T18:18:25.979Z,23.164056
2023-01-27T18:23:29.324Z,23.451406
2023-01-27T18:28:32.244Z,23.267402
2023-01-27T18:33:35.541Z,22.774568
2023-01-27T18:38:38.747Z,22.634652
2023-01-27T18:43:42.603Z,22.864358
2023-01-27T18:48:46.708Z,22.74519
2023-01-27T18:53:51.299Z,22.5528
2023-01-27T18:58:55.802Z,22.593156
2023-01-27T19:03:59.594Z,22.79286
2023-01-27T19:09:02.892Z,21.806866
2023-01-27T19:14:05.984Z,21.760716
2023-01-27T19:19:10.038Z,21.90971
2023-01-27T19:24:14.731Z,21.640462
2023-01-27T19:29:18.179Z,20.25266
2023-01-27T19:34:21.698Z,20.658458
2023-01-27T19:39:25.699Z,19.948552
2023-01-27T19:44:29.240Z,20.906076
2023-01-27T19:49:33.052Z,21.001416
2023-01-27T19:54:37.566Z,21.086592
2023-01-27T19:59:41.696Z,21.104246
2023-01-27T20:04:45.978Z,20.669056
2023-01-27T20:09:50.208Z,20.613258
2023-01-27T20:14:53.966Z,20.539548
2023-01-27T20:19:58.141Z,20.69245
2023-01-27T20:25:02.105Z,20.467344
2023-01-27T20:30:07.963Z,20.753364
2023-01-27T20:35:10.853Z,20.954628
2023-01-27T20:40:13.865Z,20.521636
2023-01-27T20:45:17.104Z,20.545668
2023-01-27T20:50:20.484Z,21.093214
2023-01-27T20:55:24.595Z,20.94977
2023-01-27T21:00:27.552Z,19.997918
2023-01-27T21:05:30.678Z,20.466096
2023-01-27T21:10:33.717Z,20.219998
2023-01-27T21:15:36.836Z,20.357064
2023-01-27T21:20:40.141Z,20.347742
2023-01-27T21:25:43.261Z,19.866904
2023-01-27T21:30:46.080Z,19.595716
2023-01-27T21:35:48.715Z,19.476534
2023-01-27T21:40:51.675Z,18.404172
2023-01-27T21:45:54.390Z,17.013454
2023-01-27T21:50:56.669Z,18.306186
2023-01-27T21:55:59.404Z,18.566328
2023-01-27T22:01:01.133Z,18.434988
2023-01-27T22:06:02.942Z,18.491112
2023-01-27T22:11:04.453Z,18.368348
2023-01-27T22:16:05.995Z,18.38052
2023-01-27T22:21:07.790Z,17.964504
2023-01-27T22:26:09.473Z,18.39835
2023-01-27T22:31:11.284Z,18.828248
2023-01-27T22:36:12.810Z,18.276794
2023-01-27T22:41:14.445Z,17.71785
2023-01-27T22:46:15.966Z,17.881784
2023-01-27T22:51:17.884Z,18.201062
2023-01-27T22:56:19.816Z,18.417144
2023-01-27T23:01:21.663Z,18.585312
2023-01-27T23:06:23.452Z,18.364806
2023-01-27T23:11:25.262Z,18.635438
2023-01-27T23:16:27.302Z,18.1121
2023-01-27T23:21:29.348Z,18.261528
2023-01-27T23:26:30.989Z,18.35201
2023-01-27T23:31:32.750Z,18.104664
2023-01-27T23:36:34.535Z,17.711594
2023-01-27T23:41:35.985Z,17.303422
2023-01-27T23:46:37.541Z,17.548638
2023-01-27T23:51:39.266Z,17.581476
2023-01-27T23:56:41.199Z,17.295036
